sensor_id;sensor_type;location;lat;lon;timestamp;pressure;altitude;pressure_sealevel;temperature;humidity
48041;BME280;33815;48.386;11.738;2023-04-19T00:00:40;96988.00;;;6.51;100.00
48041;BME280;33815;48.386;11.738;2023-04-19T00:03:06;96973.41;;;6.50;100.00
48041;BME280;33815;48.386;11.738;2023-04-19T00:05:32;96985.88;;;6.56;100.00
48041;BME280;33815;48.386;11.738;2023-04-19T00:07:58;96967.06;;;6.54;100.00
48041;BME280;33815;48.386;11.738;2023-04-19T00:10:24;96978.09;;;6.56;100.00
48041;BME280;33815;48.386;11.738;2023-04-19T00:12:49;96978.47;;;6.51;100.00
48041;BME280;33815;48.386;11.738;2023-04-19T00:15:14;96976.00;;;6.50;100.00
48041;BME280;33815;48.386;11.738;2023-04-19T00:17:40;96962.56;;;6.45;100.00
48041;BME280;33815;48.386;11.738;2023-04-19T00:20:06;96981.75;;;6.54;100.00
48041;BME280;33815;48.386;11.738;2023-04-19T00:22:32;96961.38;;;6.38;100.00
48041;BME280;33815;48.386;11.738;2023-04-19T00:24:57;96971.88;;;6.47;100.00
48041;BME280;33815;48.386;11.738;2023-04-19T00:27:23;96974.69;;;6.44;100.00
48041;BME280;33815;48.386;11.738;2023-04-19T00:29:48;96964.88;;;6.37;100.00
48041;BME280;33815;48.386;11.738;2023-04-19T00:32:14;96947.47;;;6.27;100.00
48041;BME280;33815;48.386;11.738;2023-04-19T00:34:40;96955.00;;;6.30;100.00
48041;BME280;33815;48.386;11.738;2023-04-19T00:37:05;96962.53;;;6.33;100.00
48041;BME280;33815;48.386;11.738;2023-04-19T00:39:30;96956.16;;;6.26;100.00
48041;BME280;33815;48.386;11.738;2023-04-19T00:41:56;96961.00;;;6.31;100.00
48041;BME280;33815;48.386;11.738;2023-04-19T00:44:25;96956.44;;;6.34;100.00
48041;BME280;33815;48.386;11.738;2023-04-19T00:46:50;96939.94;;;6.24;100.00
48041;BME280;33815;48.386;11.738;2023-04-19T00:49:19;96934.84;;;6.23;100.00
48041;BME280;33815;48.386;11.738;2023-04-19T00:51:45;96944.41;;;6.33;100.00
48041;BME280;33815;48.386;11.738;2023-04-19T00:54:13;96930.28;;;6.26;100.00
48041;BME280;33815;48.386;11.738;2023-04-19T00:56:39;96928.16;;;6.20;100.00
48041;BME280;33815;48.386;11.738;2023-04-19T00:59:05;96948.53;;;6.36;100.00
48041;BME280;33815;48.386;11.738;2023-04-19T01:01:31;96926.28;;;6.22;100.00
48041;BME280;33815;48.386;11.738;2023-04-19T01:03:57;96940.41;;;6.29;100.00
48041;BME280;33815;48.386;11.738;2023-04-19T01:06:22;96933.91;;;6.24;100.00
48041;BME280;33815;48.386;11.738;2023-04-19T01:08:47;96927.09;;;6.23;100.00
48041;BME280;33815;48.386;11.738;2023-04-19T01:11:12;96940.41;;;6.29;100.00
48041;BME280;33815;48.386;11.738;2023-04-19T01:13:38;96920.50;;;6.18;100.00
48041;BME280;33815;48.386;11.738;2023-04-19T01:16:03;96935.34;;;6.28;100.00
48041;BME280;33815;48.386;11.738;2023-04-19T01:18:28;96931.09;;;6.27;100.00
48041;BME280;33815;48.386;11.738;2023-04-19T01:20:59;96927.00;;;6.24;100.00
48041;BME280;33815;48.386;11.738;2023-04-19T01:23:24;96912.16;;;6.26;100.00
48041;BME280;33815;48.386;11.738;2023-04-19T01:25:50;96924.06;;;6.29;100.00
48041;BME280;33815;48.386;11.738;2023-04-19T01:28:15;96908.38;;;6.19;100.00
48041;BME280;33815;48.386;11.738;2023-04-19T01:30:41;96911.22;;;6.27;100.00
48041;BME280;33815;48.386;11.738;2023-04-19T01:33:07;96909.69;;;6.25;100.00
48041;BME280;33815;48.386;11.738;2023-04-19T01:35:32;96898.72;;;6.21;100.00
48041;BME280;33815;48.386;11.738;2023-04-19T01:37:58;96896.16;;;6.21;100.00
48041;BME280;33815;48.386;11.738;2023-04-19T01:40:24;96907.47;;;6.31;100.00
48041;BME280;33815;48.386;11.738;2023-04-19T01:42:49;96898.06;;;6.30;100.00
48041;BME280;33815;48.386;11.738;2023-04-19T01:45:15;96899.72;;;6.31;100.00
48041;BME280;33815;48.386;11.738;2023-04-19T01:47:40;96903.13;;;6.32;100.00
48041;BME280;33815;48.386;11.738;2023-04-19T01:50:06;96898.75;;;6.32;100.00
48041;BME280;33815;48.386;11.738;2023-04-19T01:52:31;96899.72;;;6.31;100.00
48041;BME280;33815;48.386;11.738;2023-04-19T01:54:56;96890.28;;;6.30;100.00
48041;BME280;33815;48.386;11.738;2023-04-19T01:57:22;96878.25;;;6.18;100.00
48041;BME280;33815;48.386;11.738;2023-04-19T01:59:47;96871.44;;;6.17;100.00
48041;BME280;33815;48.386;11.738;2023-04-19T02:02:12;96874.50;;;6.22;100.00
48041;BME280;33815;48.386;11.738;2023-04-19T02:04:37;96882.16;;;6.24;100.00
48041;BME280;33815;48.386;11.738;2023-04-19T02:07:03;96871.53;;;6.15;100.00
48041;BME280;33815;48.386;11.738;2023-04-19T02:09:28;96880.97;;;6.28;100.00
48041;BME280;33815;48.386;11.738;2023-04-19T02:11:53;96885.22;;;6.29;100.00
48041;BME280;33815;48.386;11.738;2023-04-19T02:14:18;96873.22;;;6.28;100.00
48041;BME280;33815;48.386;11.738;2023-04-19T02:16:44;96871.22;;;6.31;100.00
48041;BME280;33815;48.386;11.738;2023-04-19T02:19:09;96880.06;;;6.29;100.00
48041;BME280;33815;48.386;11.738;2023-04-19T02:21:34;96865.81;;;6.23;100.00
48041;BME280;33815;48.386;11.738;2023-04-19T02:24:00;96869.94;;;6.26;100.00
48041;BME280;33815;48.386;11.738;2023-04-19T02:26:25;96861.91;;;6.17;100.00
48041;BME280;33815;48.386;11.738;2023-04-19T02:28:51;96855.91;;;6.17;100.00
48041;BME280;33815;48.386;11.738;2023-04-19T02:31:17;96870.50;;;6.29;100.00
48041;BME280;33815;48.386;11.738;2023-04-19T02:33:42;96864.03;;;6.24;100.00
48041;BME280;33815;48.386;11.738;2023-04-19T02:36:08;96850.53;;;6.20;100.00
48041;BME280;33815;48.386;11.738;2023-04-19T02:38:33;96859.22;;;6.30;100.00
48041;BME280;33815;48.386;11.738;2023-04-19T02:40:58;96866.19;;;6.30;100.00
48041;BME280;33815;48.386;11.738;2023-04-19T02:43:25;96854.16;;;6.29;100.00
48041;BME280;33815;48.386;11.738;2023-04-19T02:45:50;96848.38;;;6.25;100.00
48041;BME280;33815;48.386;11.738;2023-04-19T02:48:16;96840.38;;;6.28;100.00
48041;BME280;33815;48.386;11.738;2023-04-19T02:50:41;96850.41;;;6.33;100.00
48041;BME280;33815;48.386;11.738;2023-04-19T02:53:06;96851.47;;;6.30;100.00
48041;BME280;33815;48.386;11.738;2023-04-19T02:55:31;96852.88;;;6.34;100.00
48041;BME280;33815;48.386;11.738;2023-04-19T02:57:57;96834.28;;;6.29;100.00
48041;BME280;33815;48.386;11.738;2023-04-19T03:00:22;96841.59;;;6.36;100.00
48041;BME280;33815;48.386;11.738;2023-04-19T03:02:47;96826.88;;;6.25;100.00
48041;BME280;33815;48.386;11.738;2023-04-19T03:05:13;96846.53;;;6.39;100.00
48041;BME280;33815;48.386;11.738;2023-04-19T03:07:38;96840.63;;;6.37;100.00
48041;BME280;33815;48.386;11.738;2023-04-19T03:10:04;96834.28;;;6.29;100.00
48041;BME280;33815;48.386;11.738;2023-04-19T03:12:29;96843.09;;;6.38;100.00
48041;BME280;33815;48.386;11.738;2023-04-19T03:14:54;96827.78;;;6.35;100.00
48041;BME280;33815;48.386;11.738;2023-04-19T03:17:20;96820.03;;;6.35;100.00
48041;BME280;33815;48.386;11.738;2023-04-19T03:19:45;96828.50;;;6.48;100.00
48041;BME280;33815;48.386;11.738;2023-04-19T03:22:10;96839.94;;;6.46;100.00
48041;BME280;33815;48.386;11.738;2023-04-19T03:24:35;96831.69;;;6.41;100.00
48041;BME280;33815;48.386;11.738;2023-04-19T03:27:02;96825.69;;;6.40;100.00
48041;BME280;33815;48.386;11.738;2023-04-19T03:29:27;96829.19;;;6.62;100.00
48041;BME280;33815;48.386;11.738;2023-04-19T03:31:52;96826.03;;;6.47;100.00
48041;BME280;33815;48.386;11.738;2023-04-19T03:34:17;96827.34;;;6.41;100.00
48041;BME280;33815;48.386;11.738;2023-04-19T03:36:43;96817.19;;;6.38;100.00
48041;BME280;33815;48.386;11.738;2023-04-19T03:39:08;96811.81;;;6.41;100.00
48041;BME280;33815;48.386;11.738;2023-04-19T03:41:33;96808.06;;;6.34;100.00
48041;BME280;33815;48.386;11.738;2023-04-19T03:43:58;96814.97;;;6.33;100.00
48041;BME280;33815;48.386;11.738;2023-04-19T03:46:24;96805.34;;;6.36;100.00
48041;BME280;33815;48.386;11.738;2023-04-19T03:48:49;96808.97;;;6.33;100.00
48041;BME280;33815;48.386;11.738;2023-04-19T03:51:15;96803.31;;;6.28;100.00
48041;BME280;33815;48.386;11.738;2023-04-19T03:53:40;96795.00;;;6.24;100.00
48041;BME280;33815;48.386;11.738;2023-04-19T03:56:06;96809.56;;;6.37;100.00
48041;BME280;33815;48.386;11.738;2023-04-19T03:58:32;96814.97;;;6.33;100.00
48041;BME280;33815;48.386;11.738;2023-04-19T04:01:00;96801.78;;;6.25;100.00
48041;BME280;33815;48.386;11.738;2023-04-19T04:03:25;96806.84;;;6.27;100.00
48041;BME280;33815;48.386;11.738;2023-04-19T04:05:51;96811.69;;;6.31;100.00
48041;BME280;33815;48.386;11.738;2023-04-19T04:08:16;96804.25;;;6.27;100.00
48041;BME280;33815;48.386;11.738;2023-04-19T04:10:41;96802.84;;;6.23;100.00
48041;BME280;33815;48.386;11.738;2023-04-19T04:13:07;96811.09;;;6.28;100.00
48041;BME280;33815;48.386;11.738;2023-04-19T04:15:32;96809.81;;;6.33;100.00
48041;BME280;33815;48.386;11.738;2023-04-19T04:17:57;96794.38;;;6.21;100.00
48041;BME280;33815;48.386;11.738;2023-04-19T04:20:22;96801.34;;;6.31;100.00
48041;BME280;33815;48.386;11.738;2023-04-19T04:22:48;96807.22;;;6.33;100.00
48041;BME280;33815;48.386;11.738;2023-04-19T04:25:13;96804.75;;;6.32;100.00
48041;BME280;33815;48.386;11.738;2023-04-19T04:27:40;96806.72;;;6.28;100.00
48041;BME280;33815;48.386;11.738;2023-04-19T04:30:07;96810.97;;;6.29;100.00
48041;BME280;33815;48.386;11.738;2023-04-19T04:32:33;96792.50;;;6.23;100.00
48041;BME280;33815;48.386;11.738;2023-04-19T04:35:04;96820.41;;;6.30;100.00
48041;BME280;33815;48.386;11.738;2023-04-19T04:37:35;96807.09;;;6.35;100.00
48041;BME280;33815;48.386;11.738;2023-04-19T04:40:02;96808.63;;;6.38;100.00
48041;BME280;33815;48.386;11.738;2023-04-19T04:42:30;96816.16;;;6.41;100.00
48041;BME280;33815;48.386;11.738;2023-04-19T04:44:57;96796.84;;;6.33;100.00
48041;BME280;33815;48.386;11.738;2023-04-19T04:47:23;96808.63;;;6.49;100.00
48041;BME280;33815;48.386;11.738;2023-04-19T04:49:48;96816.50;;;6.47;100.00
48041;BME280;33815;48.386;11.738;2023-04-19T04:52:14;96798.50;;;6.46;100.00
48041;BME280;33815;48.386;11.738;2023-04-19T04:54:39;96815.56;;;6.60;100.00
48041;BME280;33815;48.386;11.738;2023-04-19T04:57:05;96809.56;;;6.59;100.00
48041;BME280;33815;48.386;11.738;2023-04-19T04:59:30;96818.72;;;6.63;100.00
48041;BME280;33815;48.386;11.738;2023-04-19T05:01:55;96816.50;;;6.59;100.00
48041;BME280;33815;48.386;11.738;2023-04-19T05:04:20;96812.47;;;6.66;100.00
48041;BME280;33815;48.386;11.738;2023-04-19T05:06:46;96802.25;;;6.53;100.00
48041;BME280;33815;48.386;11.738;2023-04-19T05:09:11;96809.31;;;6.62;100.00
48041;BME280;33815;48.386;11.738;2023-04-19T05:11:37;96822.72;;;6.67;100.00
48041;BME280;33815;48.386;11.738;2023-04-19T05:14:02;96807.44;;;6.53;100.00
48041;BME280;33815;48.386;11.738;2023-04-19T05:16:28;96804.25;;;6.72;100.00
48041;BME280;33815;48.386;11.738;2023-04-19T05:18:53;96806.97;;;6.71;100.00
48041;BME280;33815;48.386;11.738;2023-04-19T05:21:18;96802.59;;;6.71;100.00
48041;BME280;33815;48.386;11.738;2023-04-19T05:23:44;96815.50;;;6.82;100.00
48041;BME280;33815;48.386;11.738;2023-04-19T05:26:09;96809.06;;;6.77;100.00
48041;BME280;33815;48.386;11.738;2023-04-19T05:28:40;96793.03;;;6.72;100.00
48041;BME280;33815;48.386;11.738;2023-04-19T05:31:06;96808.94;;;6.78;100.00
48041;BME280;33815;48.386;11.738;2023-04-19T05:33:32;96812.91;;;6.94;100.00
48041;BME280;33815;48.386;11.738;2023-04-19T05:35:57;96811.50;;;6.90;100.00
48041;BME280;33815;48.386;11.738;2023-04-19T05:38:22;96812.25;;;6.80;100.00
48041;BME280;33815;48.386;11.738;2023-04-19T05:40:47;96790.81;;;6.67;100.00
48041;BME280;33815;48.386;11.738;2023-04-19T05:43:13;96808.69;;;6.70;100.00
48041;BME280;33815;48.386;11.738;2023-04-19T05:45:38;96810.09;;;6.85;100.00
48041;BME280;33815;48.386;11.738;2023-04-19T05:48:03;96814.81;;;6.80;100.00
48041;BME280;33815;48.386;11.738;2023-04-19T05:50:30;96807.50;;;6.85;100.00
48041;BME280;33815;48.386;11.738;2023-04-19T05:52:56;96807.38;;;6.87;100.00
48041;BME280;33815;48.386;11.738;2023-04-19T05:55:21;96798.19;;;6.83;100.00
48041;BME280;33815;48.386;11.738;2023-04-19T05:57:46;96807.47;;;6.97;100.00
48041;BME280;33815;48.386;11.738;2023-04-19T06:00:12;96806.91;;;6.93;100.00
48041;BME280;33815;48.386;11.738;2023-04-19T06:02:37;96807.94;;;7.02;100.00
48041;BME280;33815;48.386;11.738;2023-04-19T06:05:03;96808.06;;;7.00;100.00
48041;BME280;33815;48.386;11.738;2023-04-19T06:07:29;96803.56;;;7.02;100.00
48041;BME280;33815;48.386;11.738;2023-04-19T06:09:55;96799.53;;;7.21;100.00
48041;BME280;33815;48.386;11.738;2023-04-19T06:12:20;96795.72;;;7.25;100.00
48041;BME280;33815;48.386;11.738;2023-04-19T06:14:46;96803.28;;;7.49;100.00
48041;BME280;33815;48.386;11.738;2023-04-19T06:17:11;96789.59;;;7.47;100.00
48041;BME280;33815;48.386;11.738;2023-04-19T06:19:36;96801.19;;;7.64;100.00
48041;BME280;33815;48.386;11.738;2023-04-19T06:22:01;96806.19;;;7.77;100.00
48041;BME280;33815;48.386;11.738;2023-04-19T06:24:26;96786.94;;;7.59;100.00
48041;BME280;33815;48.386;11.738;2023-04-19T06:26:52;96801.63;;;7.69;100.00
48041;BME280;33815;48.386;11.738;2023-04-19T06:29:17;96797.69;;;7.96;100.00
48041;BME280;33815;48.386;11.738;2023-04-19T06:31:45;96791.75;;;8.05;100.00
48041;BME280;33815;48.386;11.738;2023-04-19T06:34:11;96792.09;;;7.91;100.00
48041;BME280;33815;48.386;11.738;2023-04-19T06:36:36;96778.91;;;7.83;100.00
48041;BME280;33815;48.386;11.738;2023-04-19T06:39:01;96795.34;;;7.93;100.00
48041;BME280;33815;48.386;11.738;2023-04-19T06:41:27;96788.03;;;7.98;100.00
48041;BME280;33815;48.386;11.738;2023-04-19T06:43:52;96779.53;;;7.96;100.00
48041;BME280;33815;48.386;11.738;2023-04-19T06:46:18;96780.41;;;8.06;100.00
48041;BME280;33815;48.386;11.738;2023-04-19T06:48:43;96786.78;;;8.23;100.00
48041;BME280;33815;48.386;11.738;2023-04-19T06:51:08;96782.16;;;8.37;100.00
48041;BME280;33815;48.386;11.738;2023-04-19T06:53:34;96776.22;;;8.46;100.00
48041;BME280;33815;48.386;11.738;2023-04-19T06:56:00;96779.53;;;8.68;100.00
48041;BME280;33815;48.386;11.738;2023-04-19T06:58:26;96771.25;;;8.94;100.00
48041;BME280;33815;48.386;11.738;2023-04-19T07:00:52;96771.00;;;8.97;100.00
48041;BME280;33815;48.386;11.738;2023-04-19T07:03:17;96770.00;;;9.07;100.00
48041;BME280;33815;48.386;11.738;2023-04-19T07:05:43;96767.69;;;9.24;100.00
48041;BME280;33815;48.386;11.738;2023-04-19T07:08:08;96772.75;;;9.35;100.00
48041;BME280;33815;48.386;11.738;2023-04-19T07:10:33;96764.56;;;9.30;100.00
48041;BME280;33815;48.386;11.738;2023-04-19T07:12:58;96761.53;;;9.35;100.00
48041;BME280;33815;48.386;11.738;2023-04-19T07:15:24;96756.91;;;9.38;100.00
48041;BME280;33815;48.386;11.738;2023-04-19T07:17:49;96762.91;;;9.39;100.00
48041;BME280;33815;48.386;11.738;2023-04-19T07:20:14;96759.69;;;9.74;100.00
48041;BME280;33815;48.386;11.738;2023-04-19T07:22:40;96749.47;;;9.43;100.00
48041;BME280;33815;48.386;11.738;2023-04-19T07:25:05;96760.44;;;9.37;100.00
48041;BME280;33815;48.386;11.738;2023-04-19T07:27:31;96764.28;;;9.33;100.00
48041;BME280;33815;48.386;11.738;2023-04-19T07:29:56;96751.41;;;9.41;100.00
48041;BME280;33815;48.386;11.738;2023-04-19T07:32:21;96757.25;;;9.63;100.00
48041;BME280;33815;48.386;11.738;2023-04-19T07:34:46;96763.94;;;9.85;98.72
48041;BME280;33815;48.386;11.738;2023-04-19T07:37:12;96757.34;;;9.91;100.00
48041;BME280;33815;48.386;11.738;2023-04-19T07:39:38;96753.78;;;10.29;100.00
48041;BME280;33815;48.386;11.738;2023-04-19T07:42:03;96750.47;;;10.37;97.74
48041;BME280;33815;48.386;11.738;2023-04-19T07:44:28;96755.53;;;10.39;98.35
48041;BME280;33815;48.386;11.738;2023-04-19T07:46:54;96752.13;;;10.66;96.00
48041;BME280;33815;48.386;11.738;2023-04-19T07:49:19;96752.16;;;10.56;95.47
48041;BME280;33815;48.386;11.738;2023-04-19T07:51:45;96753.97;;;10.46;93.78
48041;BME280;33815;48.386;11.738;2023-04-19T07:54:10;96748.22;;;10.52;94.20
48041;BME280;33815;48.386;11.738;2023-04-19T07:56:35;96743.06;;;10.42;94.03
48041;BME280;33815;48.386;11.738;2023-04-19T07:59:01;96741.25;;;10.43;93.53
48041;BME280;33815;48.386;11.738;2023-04-19T08:01:28;96745.88;;;10.49;94.15
48041;BME280;33815;48.386;11.738;2023-04-19T08:03:53;96747.63;;;10.58;94.50
48041;BME280;33815;48.386;11.738;2023-04-19T08:06:18;96741.91;;;10.55;93.15
48041;BME280;33815;48.386;11.738;2023-04-19T08:08:45;96738.16;;;10.57;92.95
48041;BME280;33815;48.386;11.738;2023-04-19T08:11:11;96728.53;;;10.30;93.68
48041;BME280;33815;48.386;11.738;2023-04-19T08:13:36;96738.53;;;10.35;93.48
48041;BME280;33815;48.386;11.738;2023-04-19T08:16:01;96727.81;;;10.10;95.18
48041;BME280;33815;48.386;11.738;2023-04-19T08:18:26;96734.56;;;10.31;95.55
48041;BME280;33815;48.386;11.738;2023-04-19T08:20:52;96737.41;;;10.47;92.76
48041;BME280;33815;48.386;11.738;2023-04-19T08:23:17;96741.69;;;10.38;95.08
48041;BME280;33815;48.386;11.738;2023-04-19T08:25:43;96724.56;;;10.36;94.58
48041;BME280;33815;48.386;11.738;2023-04-19T08:28:08;96721.22;;;10.43;94.09
48041;BME280;33815;48.386;11.738;2023-04-19T08:30:33;96728.13;;;10.25;95.95
48041;BME280;33815;48.386;11.738;2023-04-19T08:32:58;96727.03;;;10.27;95.66
48041;BME280;33815;48.386;11.738;2023-04-19T08:35:25;96726.88;;;10.39;95.61
48041;BME280;33815;48.386;11.738;2023-04-19T08:37:50;96727.56;;;10.41;94.78
48041;BME280;33815;48.386;11.738;2023-04-19T08:40:16;96728.78;;;10.09;96.13
48041;BME280;33815;48.386;11.738;2023-04-19T08:42:42;96732.06;;;10.01;97.63
48041;BME280;33815;48.386;11.738;2023-04-19T08:45:07;96728.47;;;10.12;97.11
48041;BME280;33815;48.386;11.738;2023-04-19T08:47:35;96712.16;;;9.82;97.26
48041;BME280;33815;48.386;11.738;2023-04-19T08:50:03;96713.94;;;9.72;98.55
48041;BME280;33815;48.386;11.738;2023-04-19T08:52:32;96714.66;;;9.74;98.63
48041;BME280;33815;48.386;11.738;2023-04-19T08:54:57;96733.09;;;9.90;97.62
48041;BME280;33815;48.386;11.738;2023-04-19T08:57:25;96725.69;;;9.86;97.24
48041;BME280;33815;48.386;11.738;2023-04-19T08:59:50;96718.13;;;9.92;96.97
48041;BME280;33815;48.386;11.738;2023-04-19T09:02:20;96709.38;;;9.93;96.59
48041;BME280;33815;48.386;11.738;2023-04-19T09:04:45;96709.28;;;10.13;94.69
48041;BME280;33815;48.386;11.738;2023-04-19T09:07:24;96709.63;;;10.28;94.43
48041;BME280;33815;48.386;11.738;2023-04-19T09:10:06;96710.00;;;10.33;94.61
48041;BME280;33815;48.386;11.738;2023-04-19T09:12:33;96700.19;;;10.27;95.90
48041;BME280;33815;48.386;11.738;2023-04-19T09:15:00;96707.78;;;10.48;95.42
48041;BME280;33815;48.386;11.738;2023-04-19T09:17:25;96699.41;;;10.44;94.31
48041;BME280;33815;48.386;11.738;2023-04-19T09:19:51;96693.69;;;10.41;93.46
48041;BME280;33815;48.386;11.738;2023-04-19T09:22:16;96699.13;;;10.48;93.27
48041;BME280;33815;48.386;11.738;2023-04-19T09:24:42;96696.78;;;10.90;92.39
48041;BME280;33815;48.386;11.738;2023-04-19T09:27:07;96700.25;;;10.81;89.96
48041;BME280;33815;48.386;11.738;2023-04-19T09:29:36;96689.97;;;10.61;91.27
48041;BME280;33815;48.386;11.738;2023-04-19T09:32:01;96683.44;;;10.75;90.35
48041;BME280;33815;48.386;11.738;2023-04-19T09:34:26;96680.16;;;10.73;91.03
48041;BME280;33815;48.386;11.738;2023-04-19T09:36:54;96685.00;;;11.04;91.38
48041;BME280;33815;48.386;11.738;2023-04-19T09:39:32;96670.06;;;11.59;92.08
48041;BME280;33815;48.386;11.738;2023-04-19T09:42:00;96685.66;;;11.06;86.24
48041;BME280;33815;48.386;11.738;2023-04-19T09:44:26;96686.63;;;11.05;86.34
48041;BME280;33815;48.386;11.738;2023-04-19T09:46:52;96668.34;;;11.05;87.42
48041;BME280;33815;48.386;11.738;2023-04-19T09:49:23;96677.31;;;11.21;85.51
48041;BME280;33815;48.386;11.738;2023-04-19T09:51:54;96673.31;;;11.08;86.72
48041;BME280;33815;48.386;11.738;2023-04-19T09:54:22;96673.97;;;10.56;88.29
48041;BME280;33815;48.386;11.738;2023-04-19T09:56:48;96660.41;;;10.53;86.83
48041;BME280;33815;48.386;11.738;2023-04-19T09:59:14;96662.41;;;10.59;88.51
48041;BME280;33815;48.386;11.738;2023-04-19T10:01:44;96663.84;;;10.71;87.68
48041;BME280;33815;48.386;11.738;2023-04-19T10:04:11;96667.13;;;10.73;88.09
48041;BME280;33815;48.386;11.738;2023-04-19T10:06:39;96659.00;;;10.94;87.14
48041;BME280;33815;48.386;11.738;2023-04-19T10:09:05;96661.63;;;10.76;87.00
48041;BME280;33815;48.386;11.738;2023-04-19T10:11:33;96659.09;;;10.67;88.98
48041;BME280;33815;48.386;11.738;2023-04-19T10:14:07;96644.59;;;10.08;94.38
48041;BME280;33815;48.386;11.738;2023-04-19T10:16:34;96636.59;;;9.64;95.95
48041;BME280;33815;48.386;11.738;2023-04-19T10:19:02;96647.88;;;9.45;100.00
48041;BME280;33815;48.386;11.738;2023-04-19T10:21:28;96636.44;;;9.28;100.00
48041;BME280;33815;48.386;11.738;2023-04-19T10:23:56;96634.91;;;9.25;100.00
48041;BME280;33815;48.386;11.738;2023-04-19T10:26:22;96640.25;;;9.24;100.00
48041;BME280;33815;48.386;11.738;2023-04-19T10:28:47;96627.97;;;9.26;100.00
48041;BME280;33815;48.386;11.738;2023-04-19T10:31:12;96634.34;;;9.41;100.00
48041;BME280;33815;48.386;11.738;2023-04-19T10:33:38;96634.44;;;9.59;100.00
48041;BME280;33815;48.386;11.738;2023-04-19T10:36:08;96625.63;;;9.60;100.00
48041;BME280;33815;48.386;11.738;2023-04-19T10:41:01;96627.34;;;9.80;100.00
48041;BME280;33815;48.386;11.738;2023-04-19T10:43:30;96614.28;;;9.62;100.00
48041;BME280;33815;48.386;11.738;2023-04-19T10:46:08;96628.06;;;9.44;100.00
48041;BME280;33815;48.386;11.738;2023-04-19T10:48:36;96613.13;;;9.36;100.00
48041;BME280;33815;48.386;11.738;2023-04-19T10:51:11;96614.19;;;9.43;100.00
48041;BME280;33815;48.386;11.738;2023-04-19T10:56:07;96603.16;;;9.32;100.00
48041;BME280;33815;48.386;11.738;2023-04-19T11:01:47;96603.25;;;8.93;100.00
48041;BME280;33815;48.386;11.738;2023-04-19T11:04:14;96589.97;;;8.96;100.00
48041;BME280;33815;48.386;11.738;2023-04-19T11:09:31;96610.94;;;8.74;100.00
48041;BME280;33815;48.386;11.738;2023-04-19T11:12:10;96606.97;;;8.51;100.00
48041;BME280;33815;48.386;11.738;2023-04-19T11:14:38;96615.66;;;8.40;100.00
48041;BME280;33815;48.386;11.738;2023-04-19T11:17:21;96603.47;;;8.01;100.00
48041;BME280;33815;48.386;11.738;2023-04-19T11:19:55;96611.06;;;7.83;100.00
48041;BME280;33815;48.386;11.738;2023-04-19T11:25:20;96608.94;;;7.58;100.00
48041;BME280;33815;48.386;11.738;2023-04-19T11:27:50;96592.41;;;7.28;100.00
48041;BME280;33815;48.386;11.738;2023-04-19T11:30:20;96599.22;;;7.50;100.00
48041;BME280;33815;48.386;11.738;2023-04-19T11:32:52;96595.31;;;7.65;100.00
48041;BME280;33815;48.386;11.738;2023-04-19T11:35:22;96600.00;;;7.81;100.00
48041;BME280;33815;48.386;11.738;2023-04-19T11:37:48;96594.47;;;8.05;100.00
48041;BME280;33815;48.386;11.738;2023-04-19T11:40:15;96578.47;;;8.10;100.00
48041;BME280;33815;48.386;11.738;2023-04-19T11:42:41;96584.09;;;8.35;100.00
48041;BME280;33815;48.386;11.738;2023-04-19T11:45:06;96582.34;;;8.45;100.00
48041;BME280;33815;48.386;11.738;2023-04-19T11:47:33;96592.44;;;8.29;100.00
48041;BME280;33815;48.386;11.738;2023-04-19T11:50:31;96582.72;;;8.11;100.00
48041;BME280;33815;48.386;11.738;2023-04-19T11:52:58;96582.03;;;8.19;100.00
48041;BME280;33815;48.386;11.738;2023-04-19T11:55:23;96577.94;;;8.26;100.00
48041;BME280;33815;48.386;11.738;2023-04-19T11:57:48;96561.81;;;8.22;100.00
48041;BME280;33815;48.386;11.738;2023-04-19T12:00:14;96571.38;;;8.12;100.00
48041;BME280;33815;48.386;11.738;2023-04-19T12:02:44;96573.16;;;8.31;100.00
48041;BME280;33815;48.386;11.738;2023-04-19T12:05:12;96566.75;;;8.35;100.00
48041;BME280;33815;48.386;11.738;2023-04-19T12:08:05;96569.63;;;8.32;100.00
48041;BME280;33815;48.386;11.738;2023-04-19T12:10:33;96574.09;;;8.30;100.00
48041;BME280;33815;48.386;11.738;2023-04-19T12:12:59;96576.97;;;8.27;100.00
48041;BME280;33815;48.386;11.738;2023-04-19T12:15:43;96566.72;;;8.16;100.00
48041;BME280;33815;48.386;11.738;2023-04-19T12:18:09;96552.22;;;8.03;100.00
48041;BME280;33815;48.386;11.738;2023-04-19T12:20:36;96567.69;;;8.15;100.00
48041;BME280;33815;48.386;11.738;2023-04-19T12:23:02;96561.66;;;8.04;100.00
48041;BME280;33815;48.386;11.738;2023-04-19T12:25:32;96560.84;;;7.94;100.00
48041;BME280;33815;48.386;11.738;2023-04-19T12:27:59;96562.22;;;7.98;100.00
48041;BME280;33815;48.386;11.738;2023-04-19T12:30:25;96551.72;;;8.10;100.00
48041;BME280;33815;48.386;11.738;2023-04-19T12:32:51;96550.06;;;8.09;100.00
48041;BME280;33815;48.386;11.738;2023-04-19T12:35:22;96535.84;;;8.13;100.00
48041;BME280;33815;48.386;11.738;2023-04-19T12:37:48;96539.13;;;8.15;100.00
48041;BME280;33815;48.386;11.738;2023-04-19T12:40:14;96541.59;;;8.26;100.00
48041;BME280;33815;48.386;11.738;2023-04-19T12:42:39;96528.34;;;8.19;100.00
48041;BME280;33815;48.386;11.738;2023-04-19T12:45:04;96545.44;;;8.22;100.00
48041;BME280;33815;48.386;11.738;2023-04-19T12:47:30;96547.75;;;8.25;100.00
48041;BME280;33815;48.386;11.738;2023-04-19T12:49:55;96540.47;;;8.09;100.00
48041;BME280;33815;48.386;11.738;2023-04-19T12:52:22;96542.94;;;8.01;100.00
48041;BME280;33815;48.386;11.738;2023-04-19T12:54:47;96530.06;;;7.89;100.00
48041;BME280;33815;48.386;11.738;2023-04-19T12:57:12;96540.34;;;7.91;100.00
48041;BME280;33815;48.386;11.738;2023-04-19T12:59:37;96540.56;;;7.68;100.00